createdAt,value
2022-09-23T00:01:05.345Z,4.43
2022-09-23T00:03:33.401Z,5.20
2022-09-23T00:06:01.821Z,4.60
2022-09-23T00:08:29.505Z,5.68
2022-09-23T00:10:56.900Z,5.25
2022-09-23T00:13:26.872Z,6.47
2022-09-23T00:15:53.667Z,6.97
2022-09-23T00:18:21.085Z,4.55
2022-09-23T00:20:49.172Z,5.63
2022-09-23T00:23:16.119Z,5.72
2022-09-23T00:25:42.856Z,5.20
2022-09-23T00:28:09.604Z,5.95
2022-09-23T00:30:36.335Z,5.40
2022-09-23T00:33:03.093Z,5.03
2022-09-23T00:35:29.840Z,4.60
2022-09-23T00:37:56.540Z,3.97
2022-09-23T00:40:23.363Z,5.13
2022-09-23T00:42:52.084Z,6.75
2022-09-23T00:45:19.649Z,5.63
2022-09-23T00:47:50.920Z,6.57
2022-09-23T00:50:31.448Z,6.07
2022-09-23T00:53:01.361Z,4.55
2022-09-23T00:55:39.350Z,4.03
2022-09-23T00:58:09.584Z,5.88
2022-09-23T01:00:36.543Z,5.10
2022-09-23T01:03:05.976Z,7.45
2022-09-23T01:05:33.603Z,4.45
2022-09-23T01:08:02.673Z,4.63
2022-09-23T01:10:47.581Z,3.97
2022-09-23T01:13:32.426Z,4.95
2022-09-23T01:16:08.435Z,4.22
2022-09-23T01:18:40.232Z,11.15
2022-09-23T01:21:36.437Z,5.65
2022-09-23T01:24:24.404Z,4.80
2022-09-23T01:27:02.368Z,4.65
2022-09-23T01:30:06.549Z,5.47
2022-09-23T01:35:09.741Z,4.22
2022-09-23T01:37:55.907Z,5.13
2022-09-23T01:40:49.172Z,3.85
2022-09-23T01:43:24.269Z,4.70
2022-09-23T01:45:56.416Z,4.60
2022-09-23T01:48:38.727Z,5.47
2022-09-23T01:51:16.967Z,3.45
2022-09-23T01:53:51.264Z,4.85
2022-09-23T01:56:32.484Z,5.20
2022-09-23T01:59:34.334Z,3.97
2022-09-23T02:02:33.873Z,3.67
2022-09-23T02:05:15.585Z,4.43
2022-09-23T02:07:51.259Z,4.25
2022-09-23T02:10:44.146Z,5.82
2022-09-23T02:13:29.893Z,3.22
2022-09-23T02:16:01.347Z,4.80
2022-09-23T02:18:38.607Z,4.03
2022-09-23T02:21:09.217Z,4.97
2022-09-23T02:23:45.083Z,5.05
2022-09-23T02:26:19.774Z,4.63
2022-09-23T02:29:08.702Z,4.95
2022-09-23T02:32:18.147Z,5.80
2022-09-23T02:34:53.387Z,5.00
2022-09-23T02:37:44.960Z,5.10
2022-09-23T02:43:12.405Z,7.70
2022-09-23T02:45:39.442Z,5.30
2022-09-23T02:48:20.207Z,5.95
2022-09-23T02:50:47.819Z,6.30
2022-09-23T02:53:18.250Z,6.85
2022-09-23T02:55:45.030Z,6.70
2022-09-23T02:58:14.074Z,3.88
2022-09-23T03:00:51.757Z,5.32
2022-09-23T03:03:36.418Z,5.03
2022-09-23T03:06:21.296Z,6.53
2022-09-23T03:08:55.737Z,5.55
2022-09-23T03:11:24.758Z,5.05
2022-09-23T03:14:05.158Z,6.03
2022-09-23T03:16:43.668Z,5.88
2022-09-23T03:19:33.903Z,4.72
2022-09-23T03:22:05.427Z,7.35
2022-09-23T03:24:34.597Z,5.35
2022-09-23T03:27:05.459Z,4.07
2022-09-23T03:29:35.287Z,3.67
2022-09-23T03:32:02.916Z,5.65
2022-09-23T03:34:31.993Z,5.88
2022-09-23T03:37:07.788Z,4.80
2022-09-23T03:39:43.090Z,6.07
2022-09-23T03:42:39.787Z,4.40
2022-09-23T03:45:13.001Z,4.88
2022-09-23T03:47:39.744Z,5.85
2022-09-23T03:50:06.958Z,7.80
2022-09-23T03:52:33.655Z,6.53
2022-09-23T03:55:01.375Z,4.63
2022-09-23T03:57:28.171Z,4.72
2022-09-23T03:59:54.982Z,7.43
2022-09-23T04:02:21.764Z,5.90
2022-09-23T04:04:48.746Z,5.03
2022-09-23T04:07:16.291Z,6.13
2022-09-23T04:09:43.084Z,6.20
2022-09-23T04:12:14.929Z,5.65
2022-09-23T04:14:42.112Z,4.38
2022-09-23T04:17:09.604Z,5.03
2022-09-23T04:19:36.332Z,5.78
2022-09-23T04:22:04.198Z,5.85
2022-09-23T04:24:31.023Z,4.90
2022-09-23T04:26:58.083Z,5.38
2022-09-23T04:29:25.558Z,6.32
2022-09-23T04:31:53.579Z,4.38
2022-09-23T04:34:20.671Z,4.97
2022-09-23T04:36:48.733Z,6.28
2022-09-23T04:39:16.897Z,6.20
2022-09-23T04:41:44.745Z,7.32
2022-09-23T04:44:12.628Z,5.20
2022-09-23T04:46:43.874Z,8.07
2022-09-23T04:49:10.666Z,6.30
2022-09-23T04:51:37.572Z,7.35
2022-09-23T04:54:04.452Z,6.55
2022-09-23T04:56:34.454Z,6.82
2022-09-23T04:59:04.241Z,6.43
2022-09-23T05:01:34.439Z,9.02
2022-09-23T05:04:05.507Z,7.35
2022-09-23T05:06:35.023Z,7.50
2022-09-23T05:09:03.992Z,8.50
2022-09-23T05:11:31.750Z,6.30
2022-09-23T05:13:59.170Z,6.68
2022-09-23T05:16:27.158Z,6.95
2022-09-23T05:18:54.501Z,5.80
2022-09-23T05:21:23.744Z,5.40
2022-09-23T05:23:56.630Z,8.00
2022-09-23T05:26:26.258Z,6.40
2022-09-23T05:28:54.060Z,6.13
2022-09-23T05:31:24.475Z,7.68
2022-09-23T05:34:02.870Z,5.68
2022-09-23T05:36:36.968Z,7.22
2022-09-23T05:39:05.735Z,6.22
2022-09-23T05:41:34.195Z,7.68
2022-09-23T05:44:01.636Z,6.82
2022-09-23T05:46:30.206Z,6.20
2022-09-23T05:49:02.239Z,8.35
2022-09-23T05:51:31.391Z,9.05
2022-09-23T05:53:59.735Z,11.13
2022-09-23T05:56:28.359Z,7.97
2022-09-23T05:58:58.310Z,8.18
2022-09-23T06:01:28.028Z,8.48
2022-09-23T06:03:56.566Z,8.02
2022-09-23T06:06:32.617Z,9.18
2022-09-23T06:09:00.552Z,7.80
2022-09-23T06:11:30.491Z,9.45
2022-09-23T06:14:02.045Z,9.60
2022-09-23T06:16:34.722Z,8.65
2022-09-23T06:21:36.217Z,8.50
2022-09-23T06:24:04.004Z,7.70
2022-09-23T06:26:33.676Z,8.32
2022-09-23T06:29:02.584Z,11.38
2022-09-23T06:31:29.847Z,9.77
2022-09-23T06:34:08.372Z,9.02
2022-09-23T06:36:43.201Z,8.95
2022-09-23T06:39:10.428Z,10.23
2022-09-23T06:41:37.148Z,9.52
2022-09-23T06:44:04.149Z,14.18
2022-09-23T06:46:31.848Z,10.00
2022-09-23T06:48:59.319Z,8.55
2022-09-23T06:51:26.126Z,7.90
2022-09-23T06:53:52.970Z,10.60
2022-09-23T06:56:22.015Z,11.10
2022-09-23T06:58:49.805Z,7.82
2022-09-23T07:01:17.613Z,9.20
2022-09-23T07:03:46.296Z,7.88
2022-09-23T07:06:13.264Z,9.07
2022-09-23T07:08:43.875Z,7.43
2022-09-23T07:11:12.299Z,6.95
2022-09-23T07:13:41.300Z,8.73
2022-09-23T07:16:09.529Z,7.28
2022-09-23T07:18:37.671Z,8.30
2022-09-23T07:21:15.369Z,7.00
2022-09-23T07:23:43.629Z,6.82
2022-09-23T07:26:10.834Z,7.22
2022-09-23T07:28:38.332Z,9.05
2022-09-23T07:31:11.048Z,8.20
2022-09-23T07:33:39.875Z,8.27
2022-09-23T07:36:12.802Z,10.57
2022-09-23T07:38:44.994Z,9.73
2022-09-23T07:41:15.392Z,10.35
2022-09-23T07:43:42.419Z,8.10
2022-09-23T07:46:14.384Z,11.57
2022-09-23T07:48:41.798Z,10.05
2022-09-23T07:51:22.623Z,9.48
2022-09-23T07:53:51.300Z,9.18
2022-09-23T07:56:19.407Z,7.95
2022-09-23T07:59:00.479Z,7.70
2022-09-23T08:01:39.277Z,7.13
2022-09-23T08:06:41.360Z,5.93
2022-09-23T08:09:08.136Z,10.00
2022-09-23T08:11:35.185Z,6.63
2022-09-23T08:14:01.979Z,6.25
2022-09-23T08:16:28.767Z,6.35
2022-09-23T08:18:55.698Z,6.18
2022-09-23T08:21:23.016Z,6.35
2022-09-23T08:23:50.015Z,7.30
2022-09-23T08:26:21.796Z,6.20
2022-09-23T08:31:16.313Z,7.15
2022-09-23T08:33:43.168Z,6.45
2022-09-23T08:36:10.054Z,6.45
2022-09-23T08:38:37.147Z,5.45
2022-09-23T08:41:13.540Z,5.82
2022-09-23T08:43:45.407Z,5.53
2022-09-23T08:46:12.826Z,5.53
2022-09-23T08:48:46.333Z,3.88
2022-09-23T08:51:16.043Z,5.65
2022-09-23T08:53:43.813Z,6.22
2022-09-23T08:56:23.071Z,7.03
2022-09-23T08:59:12.140Z,6.55
2022-09-23T09:01:44.429Z,4.95
2022-09-23T09:04:28.210Z,4.78
2022-09-23T09:07:35.873Z,4.93
2022-09-23T09:10:33.207Z,3.85
2022-09-23T09:13:15.548Z,4.32
2022-09-23T09:16:06.406Z,3.92
2022-09-23T09:18:36.905Z,4.93
2022-09-23T09:21:13.542Z,5.15
2022-09-23T09:23:51.923Z,3.97
2022-09-23T09:26:25.312Z,4.22
2022-09-23T09:29:23.876Z,4.82
2022-09-23T09:31:57.551Z,6.18
2022-09-23T09:34:30.779Z,4.90
2022-09-23T09:37:07.753Z,4.63
2022-09-23T09:39:35.813Z,5.82
2022-09-23T09:42:03.920Z,5.97
2022-09-23T09:44:38.837Z,6.85
2022-09-23T09:47:27.002Z,4.95
2022-09-23T09:50:09.718Z,4.95
2022-09-23T09:52:48.202Z,3.80
2022-09-23T09:57:46.403Z,4.40
2022-09-23T10:00:22.034Z,3.83
2022-09-23T10:02:56.443Z,4.63
2022-09-23T10:05:31.922Z,5.53
2022-09-23T10:08:18.614Z,5.50
2022-09-23T10:10:55.157Z,4.95
2022-09-23T10:13:27.330Z,3.17
2022-09-23T10:18:31.973Z,4.40
2022-09-23T10:21:24.244Z,5.13
2022-09-23T10:23:58.019Z,3.72
2022-09-23T10:26:33.779Z,4.72
2022-09-23T10:29:20.104Z,4.00
2022-09-23T10:31:46.766Z,4.13
2022-09-23T10:34:29.024Z,5.07
2022-09-23T10:37:18.628Z,3.50
2022-09-23T10:40:03.948Z,6.00
2022-09-23T10:43:04.734Z,4.10
2022-09-23T10:45:56.978Z,5.28
2022-09-23T10:48:36.006Z,4.25
2022-09-23T10:51:25.449Z,3.72
2022-09-23T10:53:52.861Z,5.75
2022-09-23T10:56:24.946Z,3.50
2022-09-23T11:01:47.678Z,4.80
2022-09-23T11:04:23.459Z,4.60
2022-09-23T11:07:38.470Z,3.47
2022-09-23T11:10:05.036Z,3.40
2022-09-23T11:12:48.993Z,3.28
2022-09-23T11:15:21.833Z,4.30
2022-09-23T11:18:29.096Z,3.90
2022-09-23T11:21:07.885Z,5.20
2022-09-23T11:24:02.832Z,4.00
2022-09-23T11:26:35.559Z,4.03
2022-09-23T11:29:23.396Z,3.60
2022-09-23T11:32:11.190Z,4.50
2022-09-23T11:34:55.041Z,5.80
2022-09-23T11:37:32.182Z,5.53
2022-09-23T11:40:15.602Z,4.18
2022-09-23T11:42:58.227Z,3.30
2022-09-23T11:45:35.726Z,4.03
2022-09-23T11:48:41.673Z,6.63
2022-09-23T11:51:23.147Z,4.13
2022-09-23T11:54:09.926Z,4.70
2022-09-23T11:56:45.737Z,3.60
2022-09-23T11:59:40.988Z,4.68
2022-09-23T12:02:22.238Z,4.25
2022-09-23T12:05:03.542Z,3.05
2022-09-23T12:07:43.475Z,3.45
2022-09-23T12:10:11.865Z,4.97
2022-09-23T12:13:00.142Z,4.82
2022-09-23T12:15:50.669Z,4.82
2022-09-23T12:18:26.006Z,5.35
2022-09-23T12:21:48.767Z,3.55
2022-09-23T12:24:26.099Z,3.95
2022-09-23T12:26:58.351Z,3.58
2022-09-23T12:31:55.780Z,4.75
2022-09-23T12:34:32.539Z,5.18
2022-09-23T12:37:04.022Z,4.43
2022-09-23T12:39:31.356Z,3.63
2022-09-23T12:42:01.589Z,3.58
2022-09-23T12:44:41.773Z,3.00
2022-09-23T12:47:21.156Z,8.93
2022-09-23T12:49:52.465Z,4.22
2022-09-23T12:52:19.192Z,3.55
2022-09-23T12:54:48.147Z,4.75
2022-09-23T12:57:35.847Z,4.35
2022-09-23T13:00:12.790Z,3.60
2022-09-23T13:03:10.877Z,6.00
2022-09-23T13:06:11.781Z,6.10
2022-09-23T13:08:41.687Z,4.03
2022-09-23T13:11:15.170Z,7.10
2022-09-23T13:13:45.449Z,6.28
2022-09-23T13:16:20.323Z,5.20
2022-09-23T13:18:54.635Z,5.95
2022-09-23T13:21:43.069Z,4.63
2022-09-23T13:24:12.884Z,5.93
2022-09-23T13:26:44.960Z,4.60
2022-09-23T13:31:44.671Z,5.45
2022-09-23T13:34:15.536Z,5.68
2022-09-23T13:36:49.218Z,5.35
2022-09-23T13:39:16.776Z,4.20
2022-09-23T13:41:45.869Z,4.32
2022-09-23T13:44:20.376Z,5.03
2022-09-23T13:46:54.382Z,5.00
2022-09-23T13:49:28.401Z,4.43
2022-09-23T13:51:57.000Z,3.28
2022-09-23T13:54:36.355Z,4.18
2022-09-23T13:57:03.653Z,4.03
2022-09-23T13:59:51.572Z,5.65
2022-09-23T14:02:18.489Z,3.75
2022-09-23T14:04:45.934Z,6.60
2022-09-23T14:07:15.496Z,4.70
2022-09-23T14:09:44.990Z,5.60
2022-09-23T14:12:12.454Z,4.38
2022-09-23T14:14:42.033Z,5.65
2022-09-23T14:17:15.696Z,4.53
2022-09-23T14:19:43.168Z,4.38
2022-09-23T14:22:27.102Z,4.93
2022-09-23T14:24:55.853Z,4.63
2022-09-23T14:27:31.833Z,3.13
2022-09-23T14:30:00.324Z,3.45
2022-09-23T14:32:29.600Z,3.63
2022-09-23T14:35:05.292Z,5.03
2022-09-23T14:37:55.196Z,3.17
2022-09-23T14:40:33.711Z,5.55
2022-09-23T14:43:03.792Z,6.00
2022-09-23T14:45:38.888Z,3.70
2022-09-23T14:48:16.005Z,3.85
2022-09-23T14:50:51.324Z,2.28
2022-09-23T14:53:24.125Z,4.47
2022-09-23T14:56:07.382Z,3.22
2022-09-23T14:58:57.695Z,3.90
2022-09-23T15:01:36.053Z,6.32
2022-09-23T15:04:28.066Z,3.38
2022-09-23T15:06:56.258Z,4.88
2022-09-23T15:09:26.621Z,3.13
2022-09-23T15:11:57.937Z,3.03
2022-09-23T15:14:38.457Z,3.05
2022-09-23T15:17:15.166Z,3.55
2022-09-23T15:19:42.137Z,2.88
2022-09-23T15:22:10.126Z,3.90
2022-09-23T15:24:44.862Z,2.72
2022-09-23T15:27:25.914Z,3.33
2022-09-23T15:29:54.063Z,4.47
2022-09-23T15:32:22.054Z,3.00
2022-09-23T15:34:50.464Z,3.38
2022-09-23T15:37:17.991Z,4.28
2022-09-23T15:39:45.317Z,3.58
2022-09-23T15:42:12.021Z,2.92
2022-09-23T15:44:42.153Z,4.50
2022-09-23T15:47:16.322Z,3.78
2022-09-23T15:49:47.140Z,4.45
2022-09-23T15:52:16.019Z,3.15
2022-09-23T15:54:46.434Z,3.38
2022-09-23T15:57:13.128Z,3.83
2022-09-23T15:59:40.121Z,5.22
2022-09-23T16:02:18.156Z,3.80
2022-09-23T16:04:50.962Z,3.65
2022-09-23T16:07:19.793Z,3.20
2022-09-23T16:09:46.566Z,3.00
2022-09-23T16:12:13.776Z,2.88
2022-09-23T16:14:40.457Z,3.90
2022-09-23T16:17:12.127Z,3.75
2022-09-23T16:19:38.794Z,9.10
2022-09-23T16:22:05.718Z,5.28
2022-09-23T16:24:32.881Z,5.20
2022-09-23T16:27:04.699Z,4.50
2022-09-23T16:29:31.360Z,4.72
2022-09-23T16:31:58.221Z,6.35
2022-09-23T16:34:25.044Z,5.13
2022-09-23T16:36:51.682Z,5.22
2022-09-23T16:39:20.501Z,3.83
2022-09-23T16:41:47.447Z,5.07
2022-09-23T16:44:14.464Z,3.60
2022-09-23T16:46:42.950Z,5.45
2022-09-23T16:49:12.116Z,3.95
2022-09-23T16:51:40.171Z,5.60
2022-09-23T16:54:10.264Z,4.18
2022-09-23T16:56:39.211Z,4.97
2022-09-23T16:59:05.983Z,4.30
2022-09-23T17:01:51.246Z,4.03
2022-09-23T17:04:19.372Z,5.10
2022-09-23T17:06:50.971Z,4.90
2022-09-23T17:09:22.752Z,6.25
2022-09-23T17:11:58.668Z,6.32
2022-09-23T17:14:25.452Z,8.13
2022-09-23T17:16:52.170Z,5.78
2022-09-23T17:19:18.838Z,6.00
2022-09-23T17:21:45.523Z,6.00
2022-09-23T17:24:12.244Z,7.78
2022-09-23T17:26:39.039Z,7.60
2022-09-23T17:29:06.038Z,7.45
2022-09-23T17:31:32.987Z,11.43
2022-09-23T17:34:03.750Z,12.15
2022-09-23T17:36:30.391Z,8.60
2022-09-23T17:38:57.069Z,12.85
2022-09-23T17:41:24.216Z,13.57
2022-09-23T17:43:55.327Z,12.57
2022-09-23T17:46:22.105Z,14.48
2022-09-23T17:48:48.860Z,18.35
2022-09-23T17:51:18.799Z,19.45
2022-09-23T17:53:46.977Z,21.38
2022-09-23T17:56:19.179Z,16.90
2022-09-23T18:01:22.423Z,18.27
2022-09-23T18:03:54.605Z,14.02
2022-09-23T18:06:23.285Z,16.95
2022-09-23T18:08:51.300Z,14.57
2022-09-23T18:11:32.017Z,17.35
2022-09-23T18:14:07.624Z,15.50
2022-09-23T18:16:36.669Z,13.02
2022-09-23T18:19:04.525Z,14.77
2022-09-23T18:21:33.573Z,13.05
2022-09-23T18:24:30.844Z,15.23
2022-09-23T18:26:50.950Z,16.20
2022-09-23T18:29:18.543Z,11.77
2022-09-23T18:31:49.287Z,9.05
2022-09-23T18:34:16.842Z,9.18
2022-09-23T18:36:43.984Z,9.15
2022-09-23T18:39:11.028Z,7.55
2022-09-23T18:41:37.801Z,10.23
2022-09-23T18:44:05.125Z,10.77
2022-09-23T18:46:31.938Z,10.05
2022-09-23T18:49:17.818Z,10.13
2022-09-23T18:51:54.463Z,10.15
2022-09-23T18:54:25.848Z,11.90
2022-09-23T18:56:53.021Z,10.27
2022-09-23T18:59:25.860Z,10.07
2022-09-23T19:01:55.537Z,9.85
2022-09-23T19:04:24.411Z,12.40
2022-09-23T19:06:51.154Z,11.50
2022-09-23T19:09:18.861Z,12.48
2022-09-23T19:11:46.380Z,9.82
2022-09-23T19:14:13.720Z,10.48
2022-09-23T19:16:41.604Z,13.95
2022-09-23T19:19:08.880Z,12.68
2022-09-23T19:21:36.297Z,12.48
2022-09-23T19:24:06.127Z,9.85
2022-09-23T19:26:38.477Z,12.48
2022-09-23T19:29:08.065Z,11.02
2022-09-23T19:31:40.568Z,11.32
2022-09-23T19:34:13.155Z,13.15
2022-09-23T19:36:42.630Z,12.32
2022-09-23T19:39:18.005Z,15.15
2022-09-23T19:41:45.380Z,12.90
2022-09-23T19:44:12.327Z,12.63
2022-09-23T19:46:42.862Z,12.82
2022-09-23T19:49:11.067Z,13.32
2022-09-23T19:51:38.884Z,12.13
2022-09-23T19:54:07.235Z,10.07
2022-09-23T19:56:34.971Z,9.73
2022-09-23T19:59:03.264Z,11.05
2022-09-23T20:01:31.947Z,10.38
2022-09-23T20:03:58.771Z,10.10
2022-09-23T20:06:28.347Z,12.02
2022-09-23T20:08:57.412Z,11.73
2022-09-23T20:11:28.426Z,15.10
2022-09-23T20:14:01.208Z,11.18
2022-09-23T20:16:31.952Z,12.48
2022-09-23T20:19:00.206Z,14.50
2022-09-23T20:21:28.328Z,16.45
2022-09-23T20:23:55.412Z,14.00
2022-09-23T20:26:40.600Z,13.35
2022-09-23T20:29:08.807Z,14.13
2022-09-23T20:31:35.697Z,15.43
2022-09-23T20:34:05.480Z,16.42
2022-09-23T20:36:33.229Z,18.20
2022-09-23T20:39:02.169Z,16.92
2022-09-23T20:41:31.236Z,16.60
2022-09-23T20:44:02.365Z,18.05
2022-09-23T20:46:30.014Z,18.42
2022-09-23T20:49:00.063Z,18.33
2022-09-23T20:51:26.872Z,17.08
2022-09-23T20:53:53.553Z,16.38
2022-09-23T20:56:21.441Z,11.02
2022-09-23T20:58:50.422Z,12.07
2022-09-23T21:01:18.033Z,11.85
2022-09-23T21:03:47.493Z,11.40
2022-09-23T21:06:16.397Z,14.90
2022-09-23T21:08:44.400Z,13.52
2022-09-23T21:11:15.106Z,14.52
2022-09-23T21:13:47.056Z,13.60
2022-09-23T21:16:16.100Z,12.38
2022-09-23T21:18:43.322Z,13.02
2022-09-23T21:21:11.183Z,15.38
2022-09-23T21:23:39.157Z,15.15
2022-09-23T21:26:19.192Z,13.45
2022-09-23T21:28:48.540Z,13.43
2022-09-23T21:31:25.349Z,10.82
2022-09-23T21:33:56.777Z,13.60
2022-09-23T21:36:24.514Z,12.27
2022-09-23T21:38:51.974Z,9.55
2022-09-23T21:41:19.422Z,13.23
2022-09-23T21:43:46.664Z,12.27
2022-09-23T21:46:17.347Z,12.10
2022-09-23T21:48:44.089Z,10.82
2022-09-23T21:51:25.887Z,13.32
2022-09-23T21:53:55.334Z,11.88
2022-09-23T21:56:24.422Z,13.15
2022-09-23T21:58:52.951Z,11.02
2022-09-23T22:01:24.541Z,13.70
2022-09-23T22:03:53.783Z,13.35
2022-09-23T22:06:22.963Z,14.50
2022-09-23T22:08:55.198Z,10.90
2022-09-23T22:14:11.544Z,11.15
2022-09-23T22:16:39.076Z,11.30
2022-09-23T22:19:07.160Z,11.15
2022-09-23T22:21:36.578Z,10.77
2022-09-23T22:24:05.091Z,16.55
2022-09-23T22:26:37.425Z,11.98
2022-09-23T22:32:08.569Z,8.82
2022-09-23T22:34:49.596Z,12.30
2022-09-23T22:37:26.099Z,10.30
2022-09-23T22:39:53.486Z,10.18
2022-09-23T22:42:23.669Z,10.38
2022-09-23T22:44:51.269Z,12.73
2022-09-23T22:47:19.714Z,13.15
2022-09-23T22:49:46.894Z,10.02
2022-09-23T22:52:15.992Z,9.80
2022-09-23T22:54:43.041Z,9.68
2022-09-23T22:57:10.400Z,13.70
2022-09-23T22:59:39.831Z,11.40
2022-09-23T23:02:07.631Z,11.07
2022-09-23T23:04:34.669Z,11.45
2022-09-23T23:07:03.122Z,11.07
2022-09-23T23:09:29.934Z,13.85
2022-09-23T23:11:56.544Z,13.65
2022-09-23T23:14:23.202Z,10.85
2022-09-23T23:16:50.088Z,10.15
2022-09-23T23:19:19.042Z,11.70
2022-09-23T23:21:46.326Z,12.10
2022-09-23T23:24:31.072Z,12.18
2022-09-23T23:26:57.895Z,10.25
2022-09-23T23:29:24.542Z,9.75
2022-09-23T23:31:51.299Z,10.55
2022-09-23T23:34:20.415Z,9.10
2022-09-23T23:36:54.608Z,11.48
2022-09-23T23:39:26.436Z,11.73
2022-09-23T23:41:57.891Z,10.20
2022-09-23T23:44:26.456Z,11.18
2022-09-23T23:46:54.203Z,13.48
2022-09-23T23:49:21.548Z,14.98
2022-09-23T23:51:48.244Z,10.20
2022-09-23T23:54:15.300Z,12.20
2022-09-23T23:56:42.561Z,12.50
2022-09-23T23:59:09.337Z,12.65
